sensor_id;sensor_type;location;lat;lon;timestamp;P1;durP1;ratioP1;P2;durP2;ratioP2
50906;SDS011;36882;27.680;85.304;2023-07-29T02:50:35;11.43;;;7.13;;
50906;SDS011;36882;27.680;85.304;2023-07-29T02:53:05;8.02;;;7.15;;
50906;SDS011;36882;27.680;85.304;2023-07-29T02:55:35;11.77;;;6.43;;
50906;SDS011;36882;27.680;85.304;2023-07-29T03:10:23;9.80;;;6.65;;
50906;SDS011;36882;27.680;85.304;2023-07-29T03:12:54;14.00;;;6.25;;
50906;SDS011;36882;27.680;85.304;2023-07-29T03:15:24;6.82;;;5.63;;
50906;SDS011;36882;27.680;85.304;2023-07-29T03:17:55;6.38;;;5.32;;
50906;SDS011;36882;27.680;85.304;2023-07-29T03:20:25;6.35;;;4.75;;
50906;SDS011;36882;27.680;85.304;2023-07-29T03:22:55;7.60;;;4.32;;
50906;SDS011;36882;27.680;85.304;2023-07-29T03:25:25;7.63;;;4.95;;
50906;SDS011;36882;27.680;85.304;2023-07-29T03:27:55;9.82;;;5.38;;
50906;SDS011;36882;27.680;85.304;2023-07-29T03:30:25;6.68;;;4.15;;
50906;SDS011;36882;27.680;85.304;2023-07-29T03:32:57;6.13;;;4.25;;
50906;SDS011;36882;27.680;85.304;2023-07-29T03:35:28;5.22;;;4.72;;
50906;SDS011;36882;27.680;85.304;2023-07-29T03:37:58;6.00;;;4.88;;
50906;SDS011;36882;27.680;85.304;2023-07-29T03:40:28;8.70;;;5.30;;
50906;SDS011;36882;27.680;85.304;2023-07-29T03:45:27;8.02;;;4.53;;
50906;SDS011;36882;27.680;85.304;2023-07-29T03:47:57;9.27;;;5.47;;
50906;SDS011;36882;27.680;85.304;2023-07-29T03:50:27;7.85;;;6.05;;
50906;SDS011;36882;27.680;85.304;2023-07-29T03:52:57;746.65;;;679.28;;
50906;SDS011;36882;27.680;85.304;2023-07-29T03:55:27;1317.97;;;960.58;;
50906;SDS011;36882;27.680;85.304;2023-07-29T03:58:00;684.20;;;612.63;;
50906;SDS011;36882;27.680;85.304;2023-07-29T04:00:30;11.30;;;8.52;;
50906;SDS011;36882;27.680;85.304;2023-07-29T04:03:00;11.23;;;5.80;;
50906;SDS011;36882;27.680;85.304;2023-07-29T04:05:31;9.75;;;4.97;;
50906;SDS011;36882;27.680;85.304;2023-07-29T04:08:00;12.18;;;5.75;;
50906;SDS011;36882;27.680;85.304;2023-07-29T04:10:33;6.78;;;4.85;;
50906;SDS011;36882;27.680;85.304;2023-07-29T04:13:03;7.22;;;5.38;;
50906;SDS011;36882;27.680;85.304;2023-07-29T04:15:33;7.55;;;5.30;;
50906;SDS011;36882;27.680;85.304;2023-07-29T04:18:06;11.20;;;5.82;;
50906;SDS011;36882;27.680;85.304;2023-07-29T04:20:36;6.93;;;5.03;;
50906;SDS011;36882;27.680;85.304;2023-07-29T04:23:06;6.10;;;4.53;;
50906;SDS011;36882;27.680;85.304;2023-07-29T04:25:36;5.15;;;4.35;;
50906;SDS011;36882;27.680;85.304;2023-07-29T04:28:05;7.95;;;4.97;;
50906;SDS011;36882;27.680;85.304;2023-07-29T04:30:35;10.15;;;4.53;;
50906;SDS011;36882;27.680;85.304;2023-07-29T04:33:05;6.53;;;4.18;;
50906;SDS011;36882;27.680;85.304;2023-07-29T04:35:35;8.05;;;4.82;;
50906;SDS011;36882;27.680;85.304;2023-07-29T04:38:05;10.60;;;4.53;;
50906;SDS011;36882;27.680;85.304;2023-07-29T04:40:34;6.28;;;4.75;;
50906;SDS011;36882;27.680;85.304;2023-07-29T04:43:04;7.00;;;5.20;;
50906;SDS011;36882;27.680;85.304;2023-07-29T04:45:34;5.80;;;4.32;;
50906;SDS011;36882;27.680;85.304;2023-07-29T04:48:04;10.88;;;5.63;;
50906;SDS011;36882;27.680;85.304;2023-07-29T04:50:34;7.38;;;5.47;;
50906;SDS011;36882;27.680;85.304;2023-07-29T04:53:04;5.82;;;4.70;;
50906;SDS011;36882;27.680;85.304;2023-07-29T04:55:33;7.63;;;4.72;;
50906;SDS011;36882;27.680;85.304;2023-07-29T04:58:03;7.82;;;4.78;;
50906;SDS011;36882;27.680;85.304;2023-07-29T05:00:33;7.90;;;4.55;;
50906;SDS011;36882;27.680;85.304;2023-07-29T05:03:03;6.70;;;5.13;;
50906;SDS011;36882;27.680;85.304;2023-07-29T05:05:33;7.25;;;4.43;;
50906;SDS011;36882;27.680;85.304;2023-07-29T05:08:03;7.97;;;4.78;;
50906;SDS011;36882;27.680;85.304;2023-07-29T05:10:35;8.50;;;4.72;;
50906;SDS011;36882;27.680;85.304;2023-07-29T05:13:04;6.10;;;4.70;;
50906;SDS011;36882;27.680;85.304;2023-07-29T05:15:34;9.18;;;3.85;;
50906;SDS011;36882;27.680;85.304;2023-07-29T05:18:04;6.65;;;4.68;;
50906;SDS011;36882;27.680;85.304;2023-07-29T05:20:34;7.10;;;5.07;;
50906;SDS011;36882;27.680;85.304;2023-07-29T05:23:05;7.13;;;4.97;;
50906;SDS011;36882;27.680;85.304;2023-07-29T05:25:35;10.77;;;5.18;;
50906;SDS011;36882;27.680;85.304;2023-07-29T05:28:05;10.70;;;4.90;;
50906;SDS011;36882;27.680;85.304;2023-07-29T05:30:35;8.43;;;6.13;;
50906;SDS011;36882;27.680;85.304;2023-07-29T05:33:06;10.13;;;6.22;;
50906;SDS011;36882;27.680;85.304;2023-07-29T05:35:39;17.17;;;6.50;;
50906;SDS011;36882;27.680;85.304;2023-07-29T05:38:09;14.57;;;6.78;;
50906;SDS011;36882;27.680;85.304;2023-07-29T05:40:53;8.57;;;5.97;;
50906;SDS011;36882;27.680;85.304;2023-07-29T05:43:26;14.57;;;7.60;;
50906;SDS011;36882;27.680;85.304;2023-07-29T05:45:56;13.07;;;6.40;;
50906;SDS011;36882;27.680;85.304;2023-07-29T05:48:27;14.25;;;5.85;;
50906;SDS011;36882;27.680;85.304;2023-07-29T05:50:57;14.75;;;6.35;;
50906;SDS011;36882;27.680;85.304;2023-07-29T05:53:27;3.85;;;2.70;;
50906;SDS011;36882;27.680;85.304;2023-07-29T05:55:59;6.13;;;3.60;;
50906;SDS011;36882;27.680;85.304;2023-07-29T05:58:29;4.38;;;2.85;;
50906;SDS011;36882;27.680;85.304;2023-07-29T06:00:59;5.20;;;3.00;;
50906;SDS011;36882;27.680;85.304;2023-07-29T06:03:29;6.45;;;3.28;;
50906;SDS011;36882;27.680;85.304;2023-07-29T06:05:59;6.45;;;3.28;;
50906;SDS011;36882;27.680;85.304;2023-07-29T06:08:29;4.53;;;2.45;;
50906;SDS011;36882;27.680;85.304;2023-07-29T06:11:03;6.18;;;3.00;;
50906;SDS011;36882;27.680;85.304;2023-07-29T06:13:36;4.03;;;2.85;;
50906;SDS011;36882;27.680;85.304;2023-07-29T06:16:09;7.50;;;4.00;;
50906;SDS011;36882;27.680;85.304;2023-07-29T06:18:39;11.05;;;4.82;;
50906;SDS011;36882;27.680;85.304;2023-07-29T06:21:10;5.28;;;3.42;;
50906;SDS011;36882;27.680;85.304;2023-07-29T06:23:45;6.40;;;3.10;;
50906;SDS011;36882;27.680;85.304;2023-07-29T06:26:15;5.78;;;2.97;;
50906;SDS011;36882;27.680;85.304;2023-07-29T06:28:47;6.97;;;3.60;;
50906;SDS011;36882;27.680;85.304;2023-07-29T06:31:17;8.43;;;3.13;;
50906;SDS011;36882;27.680;85.304;2023-07-29T06:33:47;5.95;;;3.53;;
50906;SDS011;36882;27.680;85.304;2023-07-29T06:36:16;6.80;;;3.55;;
50906;SDS011;36882;27.680;85.304;2023-07-29T06:38:46;9.45;;;4.47;;
50906;SDS011;36882;27.680;85.304;2023-07-29T06:41:17;9.80;;;5.00;;
50906;SDS011;36882;27.680;85.304;2023-07-29T06:43:47;5.50;;;4.20;;
50906;SDS011;36882;27.680;85.304;2023-07-29T06:46:17;7.35;;;3.85;;
50906;SDS011;36882;27.680;85.304;2023-07-29T06:48:48;7.88;;;3.63;;
50906;SDS011;36882;27.680;85.304;2023-07-29T06:51:18;5.88;;;4.28;;
50906;SDS011;36882;27.680;85.304;2023-07-29T06:53:48;5.80;;;4.63;;
50906;SDS011;36882;27.680;85.304;2023-07-29T06:56:17;5.18;;;3.70;;
50906;SDS011;36882;27.680;85.304;2023-07-29T06:58:47;5.30;;;3.95;;
50906;SDS011;36882;27.680;85.304;2023-07-29T07:01:17;6.25;;;4.63;;
50906;SDS011;36882;27.680;85.304;2023-07-29T07:03:47;6.35;;;4.32;;
50906;SDS011;36882;27.680;85.304;2023-07-29T07:06:17;5.07;;;4.53;;
50906;SDS011;36882;27.680;85.304;2023-07-29T07:08:47;4.65;;;4.00;;
50906;SDS011;36882;27.680;85.304;2023-07-29T07:11:18;4.78;;;3.22;;
50906;SDS011;36882;27.680;85.304;2023-07-29T07:13:48;4.55;;;3.35;;
50906;SDS011;36882;27.680;85.304;2023-07-29T07:16:17;4.85;;;3.20;;
50906;SDS011;36882;27.680;85.304;2023-07-29T07:18:47;5.57;;;3.30;;
50906;SDS011;36882;27.680;85.304;2023-07-29T07:21:17;3.90;;;2.90;;
50906;SDS011;36882;27.680;85.304;2023-07-29T07:23:49;4.68;;;3.63;;
50906;SDS011;36882;27.680;85.304;2023-07-29T07:26:18;5.15;;;3.40;;
50906;SDS011;36882;27.680;85.304;2023-07-29T07:28:48;7.05;;;3.40;;
50906;SDS011;36882;27.680;85.304;2023-07-29T07:31:19;4.90;;;3.40;;
50906;SDS011;36882;27.680;85.304;2023-07-29T07:33:49;5.63;;;3.50;;
50906;SDS011;36882;27.680;85.304;2023-07-29T07:36:19;4.97;;;3.78;;
50906;SDS011;36882;27.680;85.304;2023-07-29T07:38:49;6.47;;;3.85;;
50906;SDS011;36882;27.680;85.304;2023-07-29T07:41:20;5.78;;;4.38;;
50906;SDS011;36882;27.680;85.304;2023-07-29T07:43:51;5.25;;;3.83;;
50906;SDS011;36882;27.680;85.304;2023-07-29T07:46:21;7.55;;;4.15;;
50906;SDS011;36882;27.680;85.304;2023-07-29T07:48:51;9.18;;;4.20;;
50906;SDS011;36882;27.680;85.304;2023-07-29T07:51:21;6.30;;;3.63;;
50906;SDS011;36882;27.680;85.304;2023-07-29T07:53:51;10.60;;;4.95;;
50906;SDS011;36882;27.680;85.304;2023-07-29T07:56:21;5.38;;;4.25;;
50906;SDS011;36882;27.680;85.304;2023-07-29T07:58:51;9.43;;;4.68;;
50906;SDS011;36882;27.680;85.304;2023-07-29T08:01:21;5.05;;;4.10;;
50906;SDS011;36882;27.680;85.304;2023-07-29T08:03:51;5.93;;;4.35;;
50906;SDS011;36882;27.680;85.304;2023-07-29T08:06:20;5.32;;;4.15;;
50906;SDS011;36882;27.680;85.304;2023-07-29T08:08:50;5.22;;;3.95;;
50906;SDS011;36882;27.680;85.304;2023-07-29T08:11:21;5.88;;;3.97;;
50906;SDS011;36882;27.680;85.304;2023-07-29T08:13:51;6.40;;;5.10;;
50906;SDS011;36882;27.680;85.304;2023-07-29T08:16:21;9.07;;;4.57;;
50906;SDS011;36882;27.680;85.304;2023-07-29T08:18:50;5.75;;;4.20;;
50906;SDS011;36882;27.680;85.304;2023-07-29T08:21:20;4.18;;;3.78;;
50906;SDS011;36882;27.680;85.304;2023-07-29T08:23:50;4.15;;;3.42;;
50906;SDS011;36882;27.680;85.304;2023-07-29T08:26:20;6.57;;;4.10;;
50906;SDS011;36882;27.680;85.304;2023-07-29T08:28:49;5.70;;;5.10;;
50906;SDS011;36882;27.680;85.304;2023-07-29T08:31:21;8.90;;;4.30;;
50906;SDS011;36882;27.680;85.304;2023-07-29T08:33:50;7.80;;;6.38;;
50906;SDS011;36882;27.680;85.304;2023-07-29T08:36:20;8.63;;;4.90;;
50906;SDS011;36882;27.680;85.304;2023-07-29T08:38:50;10.55;;;5.65;;
50906;SDS011;36882;27.680;85.304;2023-07-29T08:41:27;12.02;;;5.80;;
50906;SDS011;36882;27.680;85.304;2023-07-29T08:44:11;7.03;;;5.32;;
50906;SDS011;36882;27.680;85.304;2023-07-29T08:46:41;12.73;;;7.88;;
50906;SDS011;36882;27.680;85.304;2023-07-29T08:49:12;14.25;;;7.03;;
50906;SDS011;36882;27.680;85.304;2023-07-29T08:51:42;12.23;;;6.30;;
50906;SDS011;36882;27.680;85.304;2023-07-29T08:54:13;11.45;;;10.18;;
50906;SDS011;36882;27.680;85.304;2023-07-29T08:56:44;9.32;;;7.13;;
50906;SDS011;36882;27.680;85.304;2023-07-29T08:59:15;14.07;;;8.07;;
50906;SDS011;36882;27.680;85.304;2023-07-29T09:01:46;13.02;;;7.72;;
50906;SDS011;36882;27.680;85.304;2023-07-29T09:04:17;13.50;;;6.88;;
50906;SDS011;36882;27.680;85.304;2023-07-29T09:09:18;13.15;;;7.68;;
50906;SDS011;36882;27.680;85.304;2023-07-29T09:11:51;13.63;;;5.75;;
50906;SDS011;36882;27.680;85.304;2023-07-29T09:14:21;8.88;;;6.28;;
50906;SDS011;36882;27.680;85.304;2023-07-29T09:16:52;7.30;;;4.47;;
50906;SDS011;36882;27.680;85.304;2023-07-29T09:19:26;9.95;;;5.80;;
50906;SDS011;36882;27.680;85.304;2023-07-29T09:21:56;17.75;;;6.90;;
50906;SDS011;36882;27.680;85.304;2023-07-29T09:24:28;11.35;;;4.88;;
50906;SDS011;36882;27.680;85.304;2023-07-29T09:27:00;8.25;;;4.55;;
50906;SDS011;36882;27.680;85.304;2023-07-29T09:29:30;10.40;;;6.10;;
50906;SDS011;36882;27.680;85.304;2023-07-29T09:32:22;15.40;;;6.43;;
50906;SDS011;36882;27.680;85.304;2023-07-29T09:34:54;10.25;;;6.07;;
50906;SDS011;36882;27.680;85.304;2023-07-29T09:37:24;8.75;;;5.63;;
50906;SDS011;36882;27.680;85.304;2023-07-29T09:39:54;8.18;;;5.30;;
50906;SDS011;36882;27.680;85.304;2023-07-29T09:44:53;8.73;;;7.32;;
50906;SDS011;36882;27.680;85.304;2023-07-29T09:49:54;9.25;;;7.53;;
50906;SDS011;36882;27.680;85.304;2023-07-29T09:54:54;13.85;;;7.47;;
50906;SDS011;36882;27.680;85.304;2023-07-29T09:57:26;12.43;;;7.60;;
50906;SDS011;36882;27.680;85.304;2023-07-29T09:59:57;13.18;;;6.97;;
50906;SDS011;36882;27.680;85.304;2023-07-29T10:02:27;8.90;;;5.47;;
50906;SDS011;36882;27.680;85.304;2023-07-29T10:04:59;9.70;;;6.10;;
50906;SDS011;36882;27.680;85.304;2023-07-29T10:07:29;7.47;;;5.82;;
50906;SDS011;36882;27.680;85.304;2023-07-29T10:10:00;6.30;;;4.65;;
50906;SDS011;36882;27.680;85.304;2023-07-29T10:12:33;9.60;;;5.05;;
50906;SDS011;36882;27.680;85.304;2023-07-29T10:15:04;5.95;;;4.80;;
50906;SDS011;36882;27.680;85.304;2023-07-29T10:17:37;7.05;;;5.32;;
50906;SDS011;36882;27.680;85.304;2023-07-29T10:20:08;5.82;;;5.15;;
50906;SDS011;36882;27.680;85.304;2023-07-29T10:22:40;6.60;;;5.30;;
50906;SDS011;36882;27.680;85.304;2023-07-29T10:25:16;7.25;;;5.72;;
50906;SDS011;36882;27.680;85.304;2023-07-29T10:30:29;4.85;;;3.90;;
50906;SDS011;36882;27.680;85.304;2023-07-29T10:33:04;7.28;;;3.72;;
50906;SDS011;36882;27.680;85.304;2023-07-29T10:35:35;7.55;;;4.75;;
50906;SDS011;36882;27.680;85.304;2023-07-29T10:38:06;12.48;;;5.60;;
50906;SDS011;36882;27.680;85.304;2023-07-29T10:40:46;8.77;;;5.38;;
50906;SDS011;36882;27.680;85.304;2023-07-29T10:43:34;9.40;;;5.93;;
50906;SDS011;36882;27.680;85.304;2023-07-29T10:46:27;7.13;;;5.22;;
50906;SDS011;36882;27.680;85.304;2023-07-29T10:48:57;9.57;;;6.20;;
50906;SDS011;36882;27.680;85.304;2023-07-29T10:51:36;6.78;;;6.00;;
50906;SDS011;36882;27.680;85.304;2023-07-29T10:54:11;7.10;;;4.20;;
50906;SDS011;36882;27.680;85.304;2023-07-29T10:56:48;7.13;;;5.10;;
50906;SDS011;36882;27.680;85.304;2023-07-29T11:01:53;12.48;;;4.85;;
50906;SDS011;36882;27.680;85.304;2023-07-29T11:04:27;10.60;;;6.47;;
50906;SDS011;36882;27.680;85.304;2023-07-29T11:07:19;12.45;;;7.80;;
50906;SDS011;36882;27.680;85.304;2023-07-29T11:09:56;12.65;;;7.70;;
50906;SDS011;36882;27.680;85.304;2023-07-29T11:47:23;15.55;;;8.50;;
50906;SDS011;36882;27.680;85.304;2023-07-29T11:49:57;13.88;;;8.77;;
50906;SDS011;36882;27.680;85.304;2023-07-29T11:52:32;16.77;;;9.07;;
50906;SDS011;36882;27.680;85.304;2023-07-29T11:55:04;11.77;;;7.85;;
50906;SDS011;36882;27.680;85.304;2023-07-29T11:57:36;17.48;;;8.60;;
50906;SDS011;36882;27.680;85.304;2023-07-29T12:00:08;12.25;;;8.77;;
50906;SDS011;36882;27.680;85.304;2023-07-29T12:02:42;13.32;;;7.75;;
50906;SDS011;36882;27.680;85.304;2023-07-29T12:05:13;17.25;;;9.43;;
50906;SDS011;36882;27.680;85.304;2023-07-29T12:07:47;15.15;;;8.63;;
50906;SDS011;36882;27.680;85.304;2023-07-29T12:10:17;19.40;;;8.65;;
50906;SDS011;36882;27.680;85.304;2023-07-29T12:12:53;18.70;;;9.27;;
50906;SDS011;36882;27.680;85.304;2023-07-29T12:15:27;15.82;;;9.73;;
50906;SDS011;36882;27.680;85.304;2023-07-29T12:18:00;23.10;;;9.43;;
50906;SDS011;36882;27.680;85.304;2023-07-29T12:20:31;15.50;;;8.35;;
50906;SDS011;36882;27.680;85.304;2023-07-29T12:23:01;16.17;;;9.15;;
50906;SDS011;36882;27.680;85.304;2023-07-29T12:25:33;16.48;;;8.27;;
50906;SDS011;36882;27.680;85.304;2023-07-29T12:28:07;16.73;;;9.60;;
50906;SDS011;36882;27.680;85.304;2023-07-29T12:30:43;27.48;;;12.93;;
50906;SDS011;36882;27.680;85.304;2023-07-29T12:33:29;12.45;;;10.13;;
50906;SDS011;36882;27.680;85.304;2023-07-29T12:36:00;16.48;;;8.98;;
50906;SDS011;36882;27.680;85.304;2023-07-29T12:38:31;19.83;;;10.50;;
50906;SDS011;36882;27.680;85.304;2023-07-29T12:41:01;20.08;;;10.90;;
50906;SDS011;36882;27.680;85.304;2023-07-29T12:43:31;23.27;;;11.35;;
50906;SDS011;36882;27.680;85.304;2023-07-29T12:46:03;17.52;;;11.52;;
50906;SDS011;36882;27.680;85.304;2023-07-29T12:48:34;17.25;;;10.73;;
50906;SDS011;36882;27.680;85.304;2023-07-29T12:51:04;20.30;;;10.85;;
50906;SDS011;36882;27.680;85.304;2023-07-29T12:53:34;17.83;;;12.45;;
50906;SDS011;36882;27.680;85.304;2023-07-29T12:56:05;17.50;;;11.45;;
50906;SDS011;36882;27.680;85.304;2023-07-29T12:58:36;16.02;;;11.13;;
50906;SDS011;36882;27.680;85.304;2023-07-29T13:01:06;15.35;;;9.70;;
50906;SDS011;36882;27.680;85.304;2023-07-29T13:03:38;16.80;;;10.63;;
50906;SDS011;36882;27.680;85.304;2023-07-29T13:06:08;20.27;;;9.52;;
50906;SDS011;36882;27.680;85.304;2023-07-29T13:11:07;12.30;;;9.88;;
50906;SDS011;36882;27.680;85.304;2023-07-29T13:13:37;17.73;;;12.68;;
50906;SDS011;36882;27.680;85.304;2023-07-29T13:16:07;18.75;;;11.95;;
50906;SDS011;36882;27.680;85.304;2023-07-29T13:18:37;13.95;;;9.27;;
50906;SDS011;36882;27.680;85.304;2023-07-29T13:21:08;12.57;;;8.98;;
50906;SDS011;36882;27.680;85.304;2023-07-29T13:23:38;17.73;;;10.23;;
50906;SDS011;36882;27.680;85.304;2023-07-29T13:26:08;17.40;;;10.10;;
50906;SDS011;36882;27.680;85.304;2023-07-29T13:28:39;16.20;;;11.43;;
50906;SDS011;36882;27.680;85.304;2023-07-29T13:31:09;15.38;;;9.85;;
50906;SDS011;36882;27.680;85.304;2023-07-29T13:33:39;17.50;;;12.05;;
50906;SDS011;36882;27.680;85.304;2023-07-29T13:36:09;17.00;;;11.02;;
50906;SDS011;36882;27.680;85.304;2023-07-29T13:38:39;19.27;;;11.75;;
50906;SDS011;36882;27.680;85.304;2023-07-29T13:41:10;15.85;;;10.88;;
50906;SDS011;36882;27.680;85.304;2023-07-29T13:43:40;14.20;;;12.10;;
50906;SDS011;36882;27.680;85.304;2023-07-29T13:46:09;16.75;;;12.93;;
50906;SDS011;36882;27.680;85.304;2023-07-29T13:48:41;17.33;;;13.13;;
50906;SDS011;36882;27.680;85.304;2023-07-29T13:51:11;14.20;;;11.77;;
50906;SDS011;36882;27.680;85.304;2023-07-29T13:53:41;16.88;;;12.80;;
50906;SDS011;36882;27.680;85.304;2023-07-29T13:56:11;23.35;;;14.27;;
50906;SDS011;36882;27.680;85.304;2023-07-29T13:58:41;18.35;;;13.52;;
50906;SDS011;36882;27.680;85.304;2023-07-29T14:01:14;20.10;;;12.60;;
50906;SDS011;36882;27.680;85.304;2023-07-29T14:03:46;18.27;;;11.57;;
50906;SDS011;36882;27.680;85.304;2023-07-29T14:06:16;16.05;;;12.75;;
50906;SDS011;36882;27.680;85.304;2023-07-29T14:08:57;21.45;;;13.23;;
50906;SDS011;36882;27.680;85.304;2023-07-29T14:11:31;20.08;;;14.25;;
50906;SDS011;36882;27.680;85.304;2023-07-29T14:14:02;19.83;;;14.63;;
50906;SDS011;36882;27.680;85.304;2023-07-29T14:16:32;18.15;;;13.02;;
50906;SDS011;36882;27.680;85.304;2023-07-29T14:19:06;23.17;;;14.77;;
50906;SDS011;36882;27.680;85.304;2023-07-29T14:21:38;19.67;;;14.65;;
50906;SDS011;36882;27.680;85.304;2023-07-29T14:24:09;19.45;;;14.60;;
50906;SDS011;36882;27.680;85.304;2023-07-29T14:29:09;21.75;;;12.95;;
50906;SDS011;36882;27.680;85.304;2023-07-29T14:31:38;20.88;;;14.05;;
50906;SDS011;36882;27.680;85.304;2023-07-29T14:34:09;16.55;;;12.77;;
50906;SDS011;36882;27.680;85.304;2023-07-29T14:36:39;21.42;;;14.38;;
50906;SDS011;36882;27.680;85.304;2023-07-29T14:41:38;18.63;;;13.07;;
50906;SDS011;36882;27.680;85.304;2023-07-29T14:44:08;17.52;;;14.93;;
50906;SDS011;36882;27.680;85.304;2023-07-29T14:49:10;21.10;;;14.90;;
50906;SDS011;36882;27.680;85.304;2023-07-29T14:51:40;16.50;;;13.40;;
50906;SDS011;36882;27.680;85.304;2023-07-29T14:54:10;15.48;;;13.70;;
50906;SDS011;36882;27.680;85.304;2023-07-29T14:59:09;29.90;;;15.45;;
50906;SDS011;36882;27.680;85.304;2023-07-29T15:01:39;26.98;;;15.30;;
50906;SDS011;36882;27.680;85.304;2023-07-29T15:04:09;22.45;;;15.68;;
50906;SDS011;36882;27.680;85.304;2023-07-29T15:06:40;20.05;;;14.30;;
50906;SDS011;36882;27.680;85.304;2023-07-29T15:09:10;19.17;;;14.75;;
50906;SDS011;36882;27.680;85.304;2023-07-29T15:14:09;18.60;;;13.60;;
50906;SDS011;36882;27.680;85.304;2023-07-29T15:19:08;22.65;;;16.27;;
50906;SDS011;36882;27.680;85.304;2023-07-29T15:21:41;25.83;;;16.02;;
50906;SDS011;36882;27.680;85.304;2023-07-29T15:24:11;25.55;;;15.85;;
50906;SDS011;36882;27.680;85.304;2023-07-29T15:26:42;24.20;;;17.23;;
50906;SDS011;36882;27.680;85.304;2023-07-29T15:29:12;30.73;;;19.02;;
50906;SDS011;36882;27.680;85.304;2023-07-29T15:34:11;33.05;;;19.25;;
50906;SDS011;36882;27.680;85.304;2023-07-29T15:36:41;34.45;;;17.90;;
50906;SDS011;36882;27.680;85.304;2023-07-29T15:39:12;22.30;;;16.55;;
50906;SDS011;36882;27.680;85.304;2023-07-29T15:41:42;31.00;;;16.92;;
50906;SDS011;36882;27.680;85.304;2023-07-29T15:44:13;24.55;;;15.95;;
50906;SDS011;36882;27.680;85.304;2023-07-29T15:49:13;25.80;;;16.08;;
50906;SDS011;36882;27.680;85.304;2023-07-29T15:51:45;21.73;;;16.42;;
50906;SDS011;36882;27.680;85.304;2023-07-29T15:54:16;24.80;;;15.68;;
50906;SDS011;36882;27.680;85.304;2023-07-29T15:56:46;19.65;;;14.20;;
50906;SDS011;36882;27.680;85.304;2023-07-29T15:59:16;20.45;;;14.55;;
50906;SDS011;36882;27.680;85.304;2023-07-29T16:01:46;19.60;;;13.45;;
50906;SDS011;36882;27.680;85.304;2023-07-29T16:04:18;17.23;;;13.98;;
50906;SDS011;36882;27.680;85.304;2023-07-29T16:06:49;22.67;;;14.38;;
50906;SDS011;36882;27.680;85.304;2023-07-29T16:09:20;17.73;;;14.32;;
50906;SDS011;36882;27.680;85.304;2023-07-29T16:11:50;22.73;;;14.10;;
50906;SDS011;36882;27.680;85.304;2023-07-29T16:14:20;24.02;;;12.40;;
50906;SDS011;36882;27.680;85.304;2023-07-29T16:16:51;24.92;;;14.95;;
50906;SDS011;36882;27.680;85.304;2023-07-29T16:19:25;20.15;;;12.77;;
50906;SDS011;36882;27.680;85.304;2023-07-29T16:21:57;22.58;;;14.23;;
50906;SDS011;36882;27.680;85.304;2023-07-29T16:24:38;24.35;;;13.90;;
50906;SDS011;36882;27.680;85.304;2023-07-29T16:27:08;23.77;;;16.73;;
50906;SDS011;36882;27.680;85.304;2023-07-29T16:29:38;18.23;;;13.80;;
50906;SDS011;36882;27.680;85.304;2023-07-29T16:32:08;25.38;;;12.45;;
50906;SDS011;36882;27.680;85.304;2023-07-29T16:34:39;20.55;;;14.30;;
50906;SDS011;36882;27.680;85.304;2023-07-29T16:43:46;16.92;;;11.25;;
50906;SDS011;36882;27.680;85.304;2023-07-29T16:46:16;20.95;;;12.32;;
50906;SDS011;36882;27.680;85.304;2023-07-29T16:51:18;14.63;;;10.68;;
50906;SDS011;36882;27.680;85.304;2023-07-29T16:53:51;16.15;;;11.45;;
50906;SDS011;36882;27.680;85.304;2023-07-29T16:56:26;19.70;;;11.73;;
50906;SDS011;36882;27.680;85.304;2023-07-29T16:58:56;18.38;;;11.85;;
50906;SDS011;36882;27.680;85.304;2023-07-29T17:01:26;18.55;;;11.63;;
50906;SDS011;36882;27.680;85.304;2023-07-29T17:03:57;17.25;;;10.88;;
50906;SDS011;36882;27.680;85.304;2023-07-29T17:06:28;24.40;;;13.55;;
50906;SDS011;36882;27.680;85.304;2023-07-29T17:09:01;25.95;;;12.93;;
50906;SDS011;36882;27.680;85.304;2023-07-29T17:11:32;20.90;;;11.10;;
50906;SDS011;36882;27.680;85.304;2023-07-29T17:16:31;24.70;;;10.70;;
50906;SDS011;36882;27.680;85.304;2023-07-29T17:19:02;18.08;;;10.82;;
50906;SDS011;36882;27.680;85.304;2023-07-29T17:21:32;13.20;;;9.55;;
50906;SDS011;36882;27.680;85.304;2023-07-29T17:24:03;19.55;;;10.02;;
50906;SDS011;36882;27.680;85.304;2023-07-29T17:26:32;12.75;;;9.23;;
50906;SDS011;36882;27.680;85.304;2023-07-29T17:29:03;15.15;;;10.35;;
50906;SDS011;36882;27.680;85.304;2023-07-29T17:31:33;21.13;;;9.63;;
50906;SDS011;36882;27.680;85.304;2023-07-29T17:34:03;19.83;;;9.25;;
50906;SDS011;36882;27.680;85.304;2023-07-29T17:36:33;23.77;;;9.73;;
50906;SDS011;36882;27.680;85.304;2023-07-29T17:39:04;16.98;;;10.27;;
50906;SDS011;36882;27.680;85.304;2023-07-29T17:41:34;18.92;;;10.07;;
50906;SDS011;36882;27.680;85.304;2023-07-29T17:44:04;14.18;;;9.95;;
50906;SDS011;36882;27.680;85.304;2023-07-29T17:51:33;15.07;;;9.02;;
50906;SDS011;36882;27.680;85.304;2023-07-29T17:54:03;13.73;;;8.98;;
50906;SDS011;36882;27.680;85.304;2023-07-29T17:59:03;14.77;;;9.38;;
50906;SDS011;36882;27.680;85.304;2023-07-29T18:01:34;16.05;;;9.55;;
50906;SDS011;36882;27.680;85.304;2023-07-29T18:04:04;16.63;;;8.45;;
50906;SDS011;36882;27.680;85.304;2023-07-29T18:06:34;10.95;;;8.27;;
50906;SDS011;36882;27.680;85.304;2023-07-29T18:09:04;15.43;;;9.15;;
50906;SDS011;36882;27.680;85.304;2023-07-29T18:11:34;12.00;;;8.60;;
50906;SDS011;36882;27.680;85.304;2023-07-29T18:14:08;13.93;;;9.30;;
50906;SDS011;36882;27.680;85.304;2023-07-29T18:16:39;15.70;;;10.55;;
50906;SDS011;36882;27.680;85.304;2023-07-29T18:19:09;14.52;;;9.13;;
50906;SDS011;36882;27.680;85.304;2023-07-29T18:21:40;12.48;;;8.57;;
50906;SDS011;36882;27.680;85.304;2023-07-29T18:26:39;12.57;;;8.60;;
50906;SDS011;36882;27.680;85.304;2023-07-29T18:31:38;18.08;;;9.60;;
50906;SDS011;36882;27.680;85.304;2023-07-29T18:34:08;15.60;;;8.70;;
50906;SDS011;36882;27.680;85.304;2023-07-29T18:36:38;16.77;;;10.02;;
50906;SDS011;36882;27.680;85.304;2023-07-29T18:39:11;14.60;;;7.88;;
50906;SDS011;36882;27.680;85.304;2023-07-29T18:44:11;18.00;;;8.65;;
50906;SDS011;36882;27.680;85.304;2023-07-29T18:49:10;14.23;;;9.75;;
50906;SDS011;36882;27.680;85.304;2023-07-29T18:54:09;15.82;;;9.38;;
50906;SDS011;36882;27.680;85.304;2023-07-29T18:56:40;15.73;;;11.10;;
50906;SDS011;36882;27.680;85.304;2023-07-29T18:59:09;14.93;;;10.20;;
50906;SDS011;36882;27.680;85.304;2023-07-29T19:01:39;16.00;;;10.50;;
50906;SDS011;36882;27.680;85.304;2023-07-29T19:04:09;16.33;;;10.02;;
50906;SDS011;36882;27.680;85.304;2023-07-29T19:06:41;17.75;;;10.55;;
50906;SDS011;36882;27.680;85.304;2023-07-29T19:09:11;15.75;;;9.82;;
50906;SDS011;36882;27.680;85.304;2023-07-29T19:14:10;19.25;;;14.05;;
50906;SDS011;36882;27.680;85.304;2023-07-29T19:19:10;20.17;;;12.27;;
50906;SDS011;36882;27.680;85.304;2023-07-29T19:24:09;24.83;;;13.85;;
50906;SDS011;36882;27.680;85.304;2023-07-29T19:26:39;18.55;;;13.07;;
50906;SDS011;36882;27.680;85.304;2023-07-29T19:29:09;20.23;;;11.40;;
50906;SDS011;36882;27.680;85.304;2023-07-29T19:31:43;19.83;;;12.75;;
50906;SDS011;36882;27.680;85.304;2023-07-29T19:36:42;23.85;;;13.32;;
50906;SDS011;36882;27.680;85.304;2023-07-29T19:39:13;23.80;;;12.85;;
50906;SDS011;36882;27.680;85.304;2023-07-29T19:41:42;20.40;;;11.88;;